createdAt,value
2017-08-10T00:00:58.902Z,20.29
2017-08-10T00:03:29.981Z,20.32
2017-08-10T00:06:01.898Z,20.28
2017-08-10T00:08:33.592Z,20.29
2017-08-10T00:11:04.982Z,20.32
2017-08-10T00:13:36.379Z,20.36
2017-08-10T00:16:07.436Z,20.37
2017-08-10T00:18:38.532Z,20.39
2017-08-10T00:21:09.901Z,20.45
2017-08-10T00:23:41.043Z,20.49
2017-08-10T00:26:12.095Z,20.36
2017-08-10T00:28:43.417Z,20.36
2017-08-10T00:31:14.505Z,20.32
2017-08-10T00:33:45.574Z,20.33
2017-08-10T00:36:17.430Z,20.26
2017-08-10T00:38:48.492Z,20.24
2017-08-10T00:41:20.087Z,20.23
2017-08-10T00:43:51.229Z,20.20
2017-08-10T00:46:23.704Z,20.17
2017-08-10T00:48:55.184Z,20.12
2017-08-10T00:51:27.277Z,20.08
2017-08-10T00:53:58.356Z,20.09
2017-08-10T00:56:30.096Z,20.02
2017-08-10T00:59:01.503Z,19.97
2017-08-10T01:01:32.634Z,20.01
2017-08-10T01:04:04.889Z,20.02
2017-08-10T01:06:35.947Z,20.07
2017-08-10T01:09:06.560Z,19.98
2017-08-10T01:11:38.044Z,20.01
2017-08-10T01:14:09.115Z,19.98
2017-08-10T01:16:40.206Z,19.91
2017-08-10T01:19:11.252Z,19.80
2017-08-10T01:21:42.299Z,19.76
2017-08-10T01:24:13.794Z,19.66
2017-08-10T01:26:44.872Z,19.63
2017-08-10T01:29:15.984Z,19.65
2017-08-10T01:31:47.351Z,19.72
2017-08-10T01:34:18.605Z,19.76
2017-08-10T01:36:49.657Z,19.81
2017-08-10T01:39:21.602Z,19.83
2017-08-10T01:41:52.658Z,19.72
2017-08-10T01:44:25.127Z,19.74
2017-08-10T01:46:56.160Z,19.75
2017-08-10T01:49:27.192Z,19.69
2017-08-10T01:51:58.885Z,19.71
2017-08-10T01:54:29.965Z,19.72
2017-08-10T01:57:01.195Z,19.74
2017-08-10T01:59:32.547Z,19.79
2017-08-10T02:02:04.535Z,19.81
2017-08-10T02:04:35.606Z,19.87
2017-08-10T02:07:06.702Z,19.92
2017-08-10T02:09:38.318Z,19.94
2017-08-10T02:12:09.669Z,19.89
2017-08-10T02:14:40.742Z,19.80
2017-08-10T02:17:12.224Z,19.77
2017-08-10T02:19:43.389Z,19.80
2017-08-10T02:22:14.459Z,19.84
2017-08-10T02:24:45.932Z,19.74
2017-08-10T02:27:16.988Z,19.75
2017-08-10T02:29:48.335Z,19.74
2017-08-10T02:32:19.494Z,19.80
2017-08-10T02:34:50.545Z,19.85
2017-08-10T02:37:23.021Z,19.87
2017-08-10T02:39:54.076Z,19.83
2017-08-10T02:42:25.921Z,19.68
2017-08-10T02:44:57.459Z,19.65
2017-08-10T02:47:28.770Z,19.64
2017-08-10T02:49:59.816Z,19.54
2017-08-10T02:52:31.024Z,19.52
2017-08-10T02:55:02.524Z,19.48
2017-08-10T02:57:34.006Z,19.37
2017-08-10T03:00:06.174Z,19.40
2017-08-10T03:02:37.249Z,19.44
2017-08-10T03:05:08.733Z,19.35
2017-08-10T03:07:39.776Z,19.25
2017-08-10T03:10:10.873Z,19.30
2017-08-10T03:12:42.303Z,19.15
2017-08-10T03:15:13.373Z,19.12
2017-08-10T03:17:44.686Z,19.13
2017-08-10T03:20:15.745Z,19.18
2017-08-10T03:22:46.816Z,19.19
2017-08-10T03:25:18.524Z,19.24
2017-08-10T03:27:49.591Z,19.27
2017-08-10T03:30:21.203Z,19.30
2017-08-10T03:32:52.664Z,19.28
2017-08-10T03:35:25.009Z,19.28
2017-08-10T03:37:56.374Z,19.27
2017-08-10T03:40:28.707Z,19.23
2017-08-10T03:42:59.762Z,19.23
2017-08-10T03:45:31.227Z,19.24
2017-08-10T03:48:03.929Z,19.23
2017-08-10T03:50:34.987Z,19.17
2017-08-10T03:55:45.879Z,19.13
2017-08-10T03:58:17.147Z,19.13
2017-08-10T04:00:48.633Z,19.16
2017-08-10T04:03:19.916Z,19.15
2017-08-10T04:05:51.326Z,18.95
2017-08-10T04:08:23.355Z,19.03
2017-08-10T04:10:54.403Z,19.08
2017-08-10T04:13:26.806Z,19.09
2017-08-10T04:15:57.847Z,19.13
2017-08-10T04:18:28.900Z,19.15
2017-08-10T04:21:00.502Z,19.15
2017-08-10T04:23:31.694Z,19.20
2017-08-10T04:26:03.768Z,19.21
2017-08-10T04:28:34.775Z,19.26
2017-08-10T04:31:05.807Z,19.23
2017-08-10T04:33:37.182Z,19.20
2017-08-10T04:36:08.222Z,19.23
2017-08-10T04:38:39.275Z,19.21
2017-08-10T04:41:10.594Z,19.22
2017-08-10T04:43:41.627Z,19.17
2017-08-10T04:48:49.436Z,19.13
2017-08-10T04:51:20.891Z,19.15
2017-08-10T04:53:52.249Z,19.17
2017-08-10T04:56:24.478Z,19.22
2017-08-10T04:58:55.616Z,19.22
2017-08-10T05:01:27.448Z,19.21
2017-08-10T05:03:58.522Z,19.23
2017-08-10T05:06:29.581Z,19.23
2017-08-10T05:09:00.729Z,19.29
2017-08-10T05:11:31.876Z,19.32
2017-08-10T05:14:03.824Z,19.33
2017-08-10T05:16:35.350Z,19.31
2017-08-10T05:19:06.377Z,19.29
2017-08-10T05:21:37.670Z,19.26
2017-08-10T05:24:08.728Z,19.24
2017-08-10T05:26:39.826Z,19.22
2017-08-10T05:29:11.335Z,19.26
2017-08-10T05:31:42.394Z,19.33
2017-08-10T05:34:13.431Z,19.36
2017-08-10T05:36:44.794Z,19.37
2017-08-10T05:39:15.852Z,19.40
2017-08-10T05:41:46.854Z,19.42
2017-08-10T05:44:18.207Z,19.36
2017-08-10T05:46:49.273Z,19.35
2017-08-10T05:49:20.903Z,19.37
2017-08-10T05:51:51.949Z,19.42
2017-08-10T05:54:24.144Z,19.43
2017-08-10T05:56:56.025Z,19.45
2017-08-10T05:59:27.077Z,19.46
2017-08-10T06:01:58.148Z,19.46
2017-08-10T06:04:29.202Z,19.46
2017-08-10T06:07:00.227Z,19.46
2017-08-10T06:09:32.212Z,19.49
2017-08-10T06:12:04.336Z,19.51
2017-08-10T06:14:36.004Z,19.53
2017-08-10T06:17:07.254Z,19.60
2017-08-10T06:19:38.499Z,19.66
2017-08-10T06:22:09.878Z,19.67
2017-08-10T06:24:40.936Z,19.70
2017-08-10T06:27:11.989Z,19.71
2017-08-10T06:29:43.424Z,19.69
2017-08-10T06:32:14.453Z,19.74
2017-08-10T06:34:45.779Z,19.75
2017-08-10T06:37:16.833Z,19.75
2017-08-10T06:39:47.834Z,19.72
2017-08-10T06:42:19.296Z,19.74
2017-08-10T06:44:50.336Z,19.75
2017-08-10T06:47:21.506Z,19.74
2017-08-10T06:49:53.185Z,19.69
2017-08-10T06:52:25.216Z,19.70
2017-08-10T06:54:56.515Z,19.70
2017-08-10T06:57:27.912Z,19.75
2017-08-10T06:59:58.955Z,19.80
2017-08-10T07:02:30.450Z,19.84
2017-08-10T07:05:01.839Z,19.86
2017-08-10T07:07:32.834Z,19.89
2017-08-10T07:10:04.865Z,19.91
2017-08-10T07:12:35.904Z,19.92
2017-08-10T07:15:06.927Z,19.91
2017-08-10T07:17:38.357Z,19.91
2017-08-10T07:20:09.508Z,19.91
2017-08-10T07:22:40.814Z,19.96
2017-08-10T07:25:11.861Z,19.98
2017-08-10T07:27:42.895Z,19.98
2017-08-10T07:30:14.359Z,20.04
2017-08-10T07:32:45.431Z,20.05
2017-08-10T07:35:16.522Z,20.15
2017-08-10T07:37:48.059Z,20.17
2017-08-10T07:40:19.156Z,20.16
2017-08-10T07:42:50.242Z,20.11
2017-08-10T07:45:21.998Z,20.08
2017-08-10T07:47:53.549Z,20.07
2017-08-10T07:50:25.944Z,20.08
2017-08-10T07:52:57.013Z,20.09
2017-08-10T07:55:28.069Z,20.01
2017-08-10T07:57:59.141Z,19.92
2017-08-10T08:00:30.492Z,19.92
2017-08-10T08:03:01.805Z,19.92
2017-08-10T08:05:32.916Z,19.94
2017-08-10T08:08:05.527Z,19.87
2017-08-10T08:10:36.612Z,19.87
2017-08-10T08:13:07.655Z,19.80
2017-08-10T08:15:39.299Z,19.73
2017-08-10T08:18:10.408Z,19.69
2017-08-10T08:20:41.601Z,19.64
2017-08-10T08:23:13.123Z,19.64
2017-08-10T08:25:44.168Z,19.61
2017-08-10T08:28:15.218Z,19.63
2017-08-10T08:30:46.755Z,19.66
2017-08-10T08:33:17.848Z,19.66
2017-08-10T08:35:48.925Z,19.63
2017-08-10T08:38:20.732Z,19.53
2017-08-10T08:40:51.870Z,19.50
2017-08-10T08:43:24.004Z,19.46
2017-08-10T08:45:55.450Z,19.46
2017-08-10T08:48:27.402Z,19.43
2017-08-10T08:50:59.384Z,19.41
2017-08-10T08:53:31.062Z,19.43
2017-08-10T08:56:02.714Z,19.39
2017-08-10T08:58:34.094Z,19.39
2017-08-10T09:01:05.312Z,19.35
2017-08-10T09:03:37.038Z,19.33
2017-08-10T09:06:08.572Z,19.33
2017-08-10T09:08:39.794Z,19.36
2017-08-10T09:11:11.203Z,19.35
2017-08-10T09:13:42.329Z,19.37
2017-08-10T09:16:13.466Z,19.35
2017-08-10T09:18:45.142Z,19.32
2017-08-10T09:21:16.338Z,19.30
2017-08-10T09:23:47.722Z,19.27
2017-08-10T09:26:19.210Z,19.23
2017-08-10T09:28:50.355Z,19.23
2017-08-10T09:31:22.110Z,19.21
2017-08-10T09:33:53.372Z,19.24
2017-08-10T09:36:26.578Z,19.33
2017-08-10T09:38:58.336Z,19.48
2017-08-10T09:41:29.507Z,19.62
2017-08-10T09:44:00.664Z,19.48
2017-08-10T09:46:32.825Z,19.41
2017-08-10T09:49:04.360Z,19.36
2017-08-10T09:51:35.739Z,19.31
2017-08-10T09:54:06.868Z,19.34
2017-08-10T09:56:38.147Z,19.30
2017-08-10T09:59:09.620Z,19.31
2017-08-10T10:01:40.839Z,19.28
2017-08-10T10:04:12.204Z,19.20
2017-08-10T10:06:43.665Z,19.21
2017-08-10T10:09:14.757Z,19.20
2017-08-10T10:11:46.334Z,19.25
2017-08-10T10:14:17.432Z,19.36
2017-08-10T10:16:48.601Z,19.39
2017-08-10T10:19:20.208Z,19.45
2017-08-10T10:21:51.358Z,19.53
2017-08-10T10:24:24.509Z,19.65
2017-08-10T10:26:56.238Z,19.71
2017-08-10T10:29:28.194Z,19.61
2017-08-10T10:31:59.690Z,19.48
2017-08-10T10:34:30.829Z,19.34
2017-08-10T10:37:02.111Z,19.35
2017-08-10T10:39:33.560Z,19.34
2017-08-10T10:42:05.587Z,18.91
2017-08-10T10:44:36.647Z,18.65
2017-08-10T10:47:08.079Z,18.57
2017-08-10T10:49:39.140Z,18.50
2017-08-10T10:52:10.599Z,18.64
2017-08-10T10:54:41.958Z,18.65
2017-08-10T10:57:13.190Z,18.78
2017-08-10T10:59:44.322Z,18.97
2017-08-10T11:02:15.467Z,19.14
2017-08-10T11:04:46.668Z,19.30
2017-08-10T11:07:18.042Z,19.40
2017-08-10T11:09:49.090Z,19.51
2017-08-10T11:12:20.167Z,19.52
2017-08-10T11:14:51.743Z,19.64
2017-08-10T11:17:23.846Z,19.79
2017-08-10T11:19:54.918Z,19.71
2017-08-10T11:22:28.724Z,19.68
2017-08-10T11:24:59.879Z,19.71
2017-08-10T11:27:31.877Z,19.92
2017-08-10T11:30:04.419Z,20.03
2017-08-10T11:32:35.719Z,20.21
2017-08-10T11:35:06.862Z,20.37
2017-08-10T11:37:38.187Z,20.37
2017-08-10T11:40:09.249Z,20.36
2017-08-10T11:42:40.330Z,20.79
2017-08-10T11:45:11.650Z,20.98
2017-08-10T11:47:42.692Z,20.94
2017-08-10T11:50:13.866Z,21.09
2017-08-10T11:52:45.195Z,21.27
2017-08-10T11:55:16.222Z,21.27
2017-08-10T11:57:47.338Z,21.68
2017-08-10T12:00:19.811Z,21.77
2017-08-10T12:02:51.736Z,21.69
2017-08-10T12:05:24.346Z,21.77
2017-08-10T12:07:56.404Z,21.80
2017-08-10T12:10:28.476Z,21.78
2017-08-10T12:12:59.844Z,22.00
2017-08-10T12:15:30.908Z,21.84
2017-08-10T12:18:02.432Z,21.63
2017-08-10T12:20:33.441Z,21.41
2017-08-10T12:23:04.716Z,21.10
2017-08-10T12:25:36.089Z,21.21
2017-08-10T12:28:09.769Z,21.20
2017-08-10T12:33:11.155Z,20.77
2017-08-10T12:35:42.257Z,20.59
2017-08-10T12:38:13.314Z,20.27
2017-08-10T12:40:44.694Z,20.17
2017-08-10T12:43:15.892Z,20.07
2017-08-10T12:45:46.958Z,20.03
2017-08-10T12:48:18.579Z,19.92
2017-08-10T12:50:49.615Z,19.83
2017-08-10T12:55:59.441Z,19.80
2017-08-10T12:58:30.809Z,19.76
2017-08-10T13:01:02.579Z,19.60
2017-08-10T13:03:33.634Z,19.58
2017-08-10T13:06:05.539Z,19.55
2017-08-10T13:08:36.574Z,19.56
2017-08-10T13:11:07.627Z,19.47
2017-08-10T13:13:39.550Z,19.48
2017-08-10T13:16:10.915Z,19.47
2017-08-10T13:18:41.972Z,19.48
2017-08-10T13:21:13.273Z,19.49
2017-08-10T13:23:44.304Z,19.53
2017-08-10T13:26:15.609Z,19.64
2017-08-10T13:28:46.649Z,19.65
2017-08-10T13:31:17.682Z,19.71
2017-08-10T13:33:54.139Z,19.70
2017-08-10T13:36:30.497Z,19.68
2017-08-10T13:39:01.793Z,19.67
2017-08-10T13:41:33.112Z,19.71
2017-08-10T13:44:05.061Z,19.78
2017-08-10T13:46:36.395Z,19.75
2017-08-10T13:49:07.505Z,19.66
2017-08-10T13:54:18.760Z,19.66
2017-08-10T13:56:50.071Z,19.66
2017-08-10T13:59:22.147Z,19.67
2017-08-10T14:01:53.306Z,19.70
2017-08-10T14:04:26.389Z,19.70
2017-08-10T14:06:57.851Z,19.79
2017-08-10T14:09:29.484Z,19.77
2017-08-10T14:12:00.716Z,19.90
2017-08-10T14:14:32.082Z,20.06
2017-08-10T14:17:03.755Z,20.11
2017-08-10T14:19:34.788Z,20.07
2017-08-10T14:22:07.635Z,20.12
2017-08-10T14:24:39.553Z,20.11
2017-08-10T14:27:11.237Z,20.10
2017-08-10T14:29:42.305Z,20.09
2017-08-10T14:32:15.171Z,20.06
2017-08-10T14:34:46.471Z,20.02
2017-08-10T14:37:17.686Z,20.04
2017-08-10T14:39:48.736Z,20.08
2017-08-10T14:42:19.846Z,19.94
2017-08-10T14:44:50.844Z,19.95
2017-08-10T14:47:23.218Z,19.94
2017-08-10T14:49:54.249Z,20.06
2017-08-10T14:52:25.999Z,20.10
2017-08-10T14:54:57.018Z,20.13
2017-08-10T14:57:28.337Z,20.10
2017-08-10T14:59:59.669Z,20.09
2017-08-10T15:02:30.725Z,20.22
2017-08-10T15:05:01.905Z,20.21
2017-08-10T15:07:33.271Z,20.25
2017-08-10T15:10:06.358Z,20.20
2017-08-10T15:12:37.681Z,20.12
2017-08-10T15:15:08.696Z,20.04
2017-08-10T15:17:39.735Z,19.95
2017-08-10T15:20:11.097Z,19.89
2017-08-10T15:22:42.137Z,19.77
2017-08-10T15:25:18.631Z,19.88
2017-08-10T15:27:49.676Z,19.92
2017-08-10T15:30:20.808Z,19.96
2017-08-10T15:32:52.184Z,20.05
2017-08-10T15:35:23.241Z,20.17
2017-08-10T15:37:54.640Z,20.30
2017-08-10T15:40:26.520Z,20.44
2017-08-10T15:42:57.639Z,20.63
2017-08-10T15:45:29.798Z,21.04
2017-08-10T15:48:01.161Z,22.48
2017-08-10T15:50:32.312Z,24.59
2017-08-10T15:53:03.943Z,25.27
2017-08-10T15:55:35.014Z,25.15
2017-08-10T15:58:06.330Z,24.88
2017-08-10T16:00:37.685Z,24.45
2017-08-10T16:03:08.715Z,24.15
2017-08-10T16:05:40.081Z,23.71
2017-08-10T16:08:11.146Z,23.34
2017-08-10T16:10:42.317Z,23.08
2017-08-10T16:13:13.666Z,22.61
2017-08-10T16:15:44.776Z,22.24
2017-08-10T16:18:15.822Z,22.01
2017-08-10T16:20:47.152Z,21.88
2017-08-10T16:23:18.210Z,21.59
2017-08-10T16:25:49.237Z,21.34
2017-08-10T16:28:20.671Z,21.00
2017-08-10T16:30:51.752Z,20.77
2017-08-10T16:33:23.417Z,20.38
2017-08-10T16:35:54.485Z,20.26
2017-08-10T16:38:27.116Z,20.20
2017-08-10T16:40:58.166Z,20.13
2017-08-10T16:43:29.511Z,20.08
2017-08-10T16:46:01.946Z,19.97
2017-08-10T16:48:33.166Z,19.96
2017-08-10T16:51:04.544Z,19.84
2017-08-10T16:53:41.399Z,19.71
2017-08-10T16:56:13.417Z,19.52
2017-08-10T16:58:44.776Z,19.14
2017-08-10T17:01:22.852Z,19.08
2017-08-10T17:03:54.040Z,19.08
2017-08-10T17:06:28.729Z,19.06
2017-08-10T17:08:59.769Z,18.91
2017-08-10T17:11:31.056Z,18.91
2017-08-10T17:14:03.467Z,18.98
2017-08-10T17:16:35.718Z,18.90
2017-08-10T17:19:07.370Z,18.80
2017-08-10T17:21:38.671Z,18.74
2017-08-10T17:24:10.071Z,18.59
2017-08-10T17:26:41.385Z,18.52
2017-08-10T17:29:12.464Z,18.38
2017-08-10T17:31:43.700Z,18.36
2017-08-10T17:34:14.998Z,18.42
2017-08-10T17:36:46.236Z,18.36
2017-08-10T17:39:17.354Z,18.35
2017-08-10T17:41:48.667Z,18.32
2017-08-10T17:44:19.705Z,18.36
2017-08-10T17:46:50.747Z,18.41
2017-08-10T17:49:22.153Z,18.35
2017-08-10T17:51:53.578Z,18.41
2017-08-10T17:54:26.077Z,18.48
2017-08-10T17:56:57.416Z,18.54
2017-08-10T17:59:28.980Z,18.44
2017-08-10T18:02:00.415Z,18.49
2017-08-10T18:04:31.768Z,18.48
2017-08-10T18:07:03.092Z,18.52
2017-08-10T18:09:34.409Z,18.54
2017-08-10T18:12:05.978Z,18.52
2017-08-10T18:17:35.174Z,18.40
2017-08-10T18:20:11.847Z,18.41
2017-08-10T18:22:44.076Z,18.45
2017-08-10T18:25:17.588Z,18.45
2017-08-10T18:27:49.898Z,18.46
2017-08-10T18:30:25.083Z,18.35
2017-08-10T18:33:06.237Z,18.30
2017-08-10T18:38:35.910Z,18.36
2017-08-10T18:41:07.519Z,18.33
2017-08-10T18:43:39.648Z,18.34
2017-08-10T18:46:13.227Z,18.33
2017-08-10T18:48:44.540Z,18.28
2017-08-10T18:51:16.890Z,18.33
2017-08-10T18:53:48.197Z,18.36
2017-08-10T18:56:22.272Z,18.33
2017-08-10T18:58:53.493Z,18.23
2017-08-10T19:01:25.052Z,18.21
2017-08-10T19:03:56.190Z,18.21
2017-08-10T19:06:27.386Z,18.14
2017-08-10T19:08:58.785Z,18.13
2017-08-10T19:11:30.042Z,18.09
2017-08-10T19:14:03.612Z,18.09
2017-08-10T19:16:35.444Z,17.96
2017-08-10T19:19:07.146Z,18.00
2017-08-10T19:21:38.668Z,17.87
2017-08-10T19:24:10.431Z,17.86
2017-08-10T19:26:43.503Z,17.91
2017-08-10T19:29:16.039Z,17.88
2017-08-10T19:31:47.749Z,17.87
2017-08-10T19:34:19.934Z,17.94
2017-08-10T19:36:51.287Z,17.91
2017-08-10T19:39:24.153Z,17.88
2017-08-10T19:41:56.798Z,17.86
2017-08-10T19:44:30.364Z,17.84
2017-08-10T19:47:01.743Z,17.83
2017-08-10T19:49:33.358Z,17.88
2017-08-10T19:52:07.180Z,17.92
2017-08-10T19:54:39.361Z,17.94
2017-08-10T19:57:10.932Z,17.92
2017-08-10T19:59:42.144Z,17.94
2017-08-10T20:02:17.491Z,17.96
2017-08-10T20:04:52.019Z,17.96
2017-08-10T20:07:27.184Z,17.97
2017-08-10T20:09:59.776Z,18.01
2017-08-10T20:12:32.306Z,17.98
2017-08-10T20:15:06.988Z,18.00
2017-08-10T20:17:40.831Z,18.05
2017-08-10T20:20:13.898Z,18.05
2017-08-10T20:22:46.980Z,18.08
2017-08-10T20:25:20.317Z,18.01
2017-08-10T20:27:53.613Z,17.95
2017-08-10T20:30:25.804Z,17.86
2017-08-10T20:32:57.245Z,17.85
2017-08-10T20:35:28.560Z,17.89
2017-08-10T20:38:02.582Z,17.91
2017-08-10T20:40:33.894Z,17.92
2017-08-10T20:43:05.532Z,17.94
2017-08-10T20:45:38.042Z,17.97
2017-08-10T20:48:10.463Z,18.00
2017-08-10T20:50:41.961Z,18.03
2017-08-10T20:53:17.273Z,18.06
2017-08-10T20:55:52.815Z,18.09
2017-08-10T20:58:28.213Z,18.16
2017-08-10T21:00:59.862Z,18.18
2017-08-10T21:03:31.034Z,18.23
2017-08-10T21:06:04.477Z,18.29
2017-08-10T21:08:35.726Z,18.34
2017-08-10T21:11:07.970Z,18.41
2017-08-10T21:13:39.148Z,18.42
2017-08-10T21:16:11.657Z,18.42
2017-08-10T21:18:44.164Z,18.39
2017-08-10T21:21:16.457Z,18.42
2017-08-10T21:23:48.020Z,18.42
2017-08-10T21:26:22.544Z,18.45
2017-08-10T21:28:55.649Z,18.50
2017-08-10T21:31:27.724Z,18.56
2017-08-10T21:33:59.940Z,18.58
2017-08-10T21:36:31.378Z,18.55
2017-08-10T21:39:03.567Z,18.53
2017-08-10T21:41:36.427Z,18.54
2017-08-10T21:44:13.122Z,18.49
2017-08-10T21:46:46.784Z,18.52
2017-08-10T21:49:20.339Z,18.48
2017-08-10T21:51:56.683Z,18.51
2017-08-10T21:54:28.566Z,18.47
2017-08-10T21:57:01.244Z,18.45
2017-08-10T21:59:48.749Z,18.46
2017-08-10T22:02:22.997Z,18.58
2017-08-10T22:04:55.825Z,18.78
2017-08-10T22:07:29.105Z,18.88
2017-08-10T22:10:02.327Z,18.91
2017-08-10T22:12:37.083Z,19.03
2017-08-10T22:15:10.341Z,19.11
2017-08-10T22:17:42.575Z,19.00
2017-08-10T22:20:20.579Z,18.97
2017-08-10T22:22:54.088Z,18.83
2017-08-10T22:25:25.921Z,18.80
2017-08-10T22:27:57.635Z,18.73
2017-08-10T22:30:29.576Z,18.73
2017-08-10T22:35:38.583Z,18.66
2017-08-10T22:38:11.248Z,18.58
2017-08-10T22:40:42.921Z,18.44
2017-08-10T22:43:15.139Z,18.38
2017-08-10T22:45:46.653Z,18.33
2017-08-10T22:48:21.237Z,18.26
2017-08-10T22:50:54.403Z,18.23
2017-08-10T22:53:27.751Z,18.21
2017-08-10T22:56:00.915Z,18.22
2017-08-10T22:58:35.365Z,18.18
2017-08-10T23:01:10.459Z,18.21
2017-08-10T23:03:42.676Z,18.18
2017-08-10T23:06:16.383Z,18.20
2017-08-10T23:08:49.323Z,18.20
2017-08-10T23:11:26.246Z,18.19
2017-08-10T23:13:59.759Z,18.20
2017-08-10T23:16:34.154Z,18.20
2017-08-10T23:19:06.744Z,18.18
2017-08-10T23:21:38.904Z,18.17
2017-08-10T23:24:11.657Z,18.18
2017-08-10T23:26:42.983Z,18.16
2017-08-10T23:29:15.272Z,18.13
2017-08-10T23:31:47.653Z,17.98
2017-08-10T23:34:21.787Z,17.90
2017-08-10T23:36:52.917Z,17.46
2017-08-10T23:39:25.620Z,17.54
2017-08-10T23:41:58.082Z,17.49
2017-08-10T23:44:29.610Z,17.37
2017-08-10T23:47:00.952Z,17.35
2017-08-10T23:49:33.615Z,17.39
2017-08-10T23:52:08.225Z,17.39
2017-08-10T23:54:41.174Z,17.30
2017-08-10T23:57:12.238Z,17.37
2017-08-10T23:59:43.333Z,17.39
